Time;durP1;ratioP1;P1;durP2;ratioP2;P2;SDS_P1;SDS_P2;PMS_P1;PMS_P2;Temp;Humidity;BMP_temperature;BMP_pressure;BME280_temperature;BME280_humidity;BME280_pressure;Samples;Min_cycle;Max_cycle;Signal;HPM_P1;HPM_P2
2022/01/22 00:00:28;;;;;;;2.40;2.00;;;;;;;;;;10476163;28;20201;-78
2022/01/22 00:05:29;;;;;;;1.70;1.70;;;;;;;;;;10468870;28;20763;-79
2022/01/22 00:10:32;;;;;;;1.92;1.83;;;;;;;;;;10463870;28;20219;-80
2022/01/22 00:15:33;;;;;;;1.52;1.40;;;;;;;;;;10454480;28;20709;-79
2022/01/22 00:20:36;;;;;;;2.50;1.88;;;;;;;;;;10478285;28;20345;-78
2022/01/22 00:25:38;;;;;;;1.83;1.83;;;;;;;;;;10456055;28;21221;-78
2022/01/22 00:30:39;;;;;;;1.63;1.58;;;;;;;;;;10471018;28;20209;-76
2022/01/22 00:35:40;;;;;;;1.80;1.80;;;;;;;;;;10470490;28;20929;-76
2022/01/22 00:40:49;;;;;;;1.90;1.80;;;;;;;;;;10450302;28;20257;-77
2022/01/22 00:45:50;;;;;;;1.83;1.73;;;;;;;;;;10427600;28;20260;-79
2022/01/22 00:50:55;;;;;;;1.90;1.15;;;;;;;;;;10409421;28;20206;-76
2022/01/22 00:55:56;;;;;;;1.80;1.70;;;;;;;;;;10428298;28;20703;-78
2022/01/22 01:00:57;;;;;;;2.00;1.40;;;;;;;;;;10418857;28;20295;-76
2022/01/22 01:05:58;;;;;;;1.60;1.50;;;;;;;;;;10431632;28;20202;-76
2022/01/22 01:11:00;;;;;;;1.00;1.00;;;;;;;;;;10421746;28;20856;-78
2022/01/22 01:16:14;;;;;;;0.95;0.95;;;;;;;;;;10422924;28;20201;-78
2022/01/22 01:37:14;;;;;;;0.70;0.70;;;;;;;;;;10424401;28;20235;-78
2022/01/22 01:42:23;;;;;;;0.70;0.70;;;;;;;;;;10436609;28;20275;-77
2022/01/22 01:47:24;;;;;;;0.50;0.50;;;;;;;;;;10421083;28;20386;-78
2022/01/22 01:57:57;;;;;;;0.55;0.40;;;;;;;;;;10400659;28;20209;-79
2022/01/22 02:02:59;;;;;;;0.50;0.50;;;;;;;;;;10456347;28;20201;-78
2022/01/22 02:08:04;;;;;;;0.25;0.25;;;;;;;;;;10469330;28;20894;-78
2022/01/22 02:24:02;;;;;;;0.40;0.40;;;;;;;;;;10470455;28;20213;-78
2022/01/22 02:29:07;;;;;;;3.67;2.53;;;;;;;;;;10449262;28;20228;-78
2022/01/22 02:34:38;;;;;;;1.20;1.00;;;;;;;;;;10484544;28;20214;-79
2022/01/22 02:39:57;;;;;;;1.30;0.90;;;;;;;;;;10469092;28;20192;-78
2022/01/22 02:44:58;;;;;;;1.15;0.70;;;;;;;;;;10438055;28;20228;-78
2022/01/22 02:49:59;;;;;;;0.50;0.50;;;;;;;;;;10442629;28;20237;-78
2022/01/22 02:55:01;;;;;;;0.47;0.30;;;;;;;;;;10435552;28;20846;-78
2022/01/22 03:00:04;;;;;;;2.35;0.35;;;;;;;;;;10430278;28;20197;-77
2022/01/22 03:05:07;;;;;;;1.33;0.70;;;;;;;;;;10437830;28;21113;-77
2022/01/22 03:10:09;;;;;;;1.27;1.20;;;;;;;;;;10422599;28;20574;-78
2022/01/22 03:15:32;;;;;;;4.30;1.27;;;;;;;;;;10434345;28;20563;-78
2022/01/22 03:30:55;;;;;;;1.25;1.23;;;;;;;;;;10435165;28;20307;-76
2022/01/22 03:35:57;;;;;;;0.70;0.70;;;;;;;;;;10414369;28;20201;-76
2022/01/22 03:40:59;;;;;;;3.03;0.82;;;;;;;;;;10421747;28;20214;-76
2022/01/22 03:46:00;;;;;;;3.92;1.15;;;;;;;;;;10397148;28;20217;-76
2022/01/22 03:51:01;;;;;;;2.88;1.17;;;;;;;;;;10408935;28;20199;-76
2022/01/22 03:56:04;;;;;;;3.90;1.90;;;;;;;;;;10405627;28;20232;-76
2022/01/22 04:01:34;;;;;;;2.25;1.38;;;;;;;;;;10438692;28;20206;-78
2022/01/22 04:11:38;;;;;;;1.50;1.45;;;;;;;;;;10423728;28;20198;-76
2022/01/22 04:16:47;;;;;;;1.58;1.30;;;;;;;;;;10428445;28;20198;-79
2022/01/22 04:27:11;;;;;;;3.45;1.92;;;;;;;;;;10415952;28;20225;-80
2022/01/22 04:32:12;;;;;;;2.15;1.52;;;;;;;;;;10420982;28;20206;-78
2022/01/22 04:37:14;;;;;;;2.85;1.60;;;;;;;;;;10412467;28;20201;-76
2022/01/22 04:42:15;;;;;;;4.72;1.70;;;;;;;;;;10437430;28;20253;-76
2022/01/22 04:47:44;;;;;;;3.13;1.63;;;;;;;;;;10401059;28;20210;-78
2022/01/22 04:58:06;;;;;;;5.93;1.63;;;;;;;;;;10428846;28;20228;-77
2022/01/22 05:03:09;;;;;;;7.13;2.30;;;;;;;;;;10420084;28;20214;-77
2022/01/22 05:08:29;;;;;;;3.15;1.90;;;;;;;;;;10444065;28;20831;-78
2022/01/22 05:13:46;;;;;;;4.35;1.73;;;;;;;;;;10434424;28;20224;-77
2022/01/22 05:18:54;;;;;;;2.65;1.60;;;;;;;;;;10449513;28;21085;-79
2022/01/22 05:24:00;;;;;;;6.63;2.10;;;;;;;;;;10440677;28;20210;-78
2022/01/22 05:29:23;;;;;;;2.65;1.77;;;;;;;;;;10433582;28;20197;-78
2022/01/22 05:40:18;;;;;;;2.90;1.83;;;;;;;;;;10439443;28;20202;-77
2022/01/22 05:45:19;;;;;;;1.98;1.77;;;;;;;;;;10471588;28;20234;-78
2022/01/22 05:50:34;;;;;;;3.60;2.17;;;;;;;;;;10493332;28;21202;-77
2022/01/22 05:59:35;;;;;;;3.28;2.63;;;;;;;;;;10474288;28;21177;-78
2022/01/22 06:01:21;;;;;;;6.03;3.10;;;;;;;;;;10475878;28;20201;-78
2022/01/22 06:06:33;;;;;;;4.78;3.08;;;;;;;;;;10463863;28;20248;-77
2022/01/22 06:11:53;;;;;;;8.90;3.58;;;;;;;;;;10468533;28;20303;-77
2022/01/22 06:16:56;;;;;;;8.57;2.50;;;;;;;;;;10481200;28;20225;-79
2022/01/22 06:22:05;;;;;;;4.95;2.72;;;;;;;;;;10459747;28;20200;-77
2022/01/22 06:27:07;;;;;;;8.75;2.65;;;;;;;;;;10467483;28;20221;-77
2022/01/22 06:32:09;;;;;;;6.28;3.08;;;;;;;;;;10451857;28;20264;-77
2022/01/22 06:37:12;;;;;;;7.40;2.88;;;;;;;;;;10462353;28;20195;-76
2022/01/22 06:42:21;;;;;;;5.90;3.30;;;;;;;;;;10465122;28;20225;-77
2022/01/22 06:47:41;;;;;;;6.53;3.58;;;;;;;;;;10481347;28;20241;-77
2022/01/22 06:52:45;;;;;;;4.50;3.55;;;;;;;;;;10463339;28;20185;-77
2022/01/22 06:57:55;;;;;;;5.63;3.55;;;;;;;;;;10473891;28;20196;-77
2022/01/22 07:03:03;;;;;;;5.13;4.10;;;;;;;;;;10452323;28;20220;-77
2022/01/22 07:08:04;;;;;;;8.27;4.28;;;;;;;;;;10467468;28;20309;-76
2022/01/22 07:13:08;;;;;;;9.05;5.10;;;;;;;;;;10479588;28;20185;-77
2022/01/22 07:18:13;;;;;;;8.10;5.07;;;;;;;;;;10473503;28;20208;-79
2022/01/22 07:23:31;;;;;;;10.50;4.57;;;;;;;;;;10448679;28;20937;-78
2022/01/22 07:28:39;;;;;;;11.52;4.57;;;;;;;;;;10450115;28;20198;-77
2022/01/22 07:33:41;;;;;;;12.98;5.15;;;;;;;;;;10461737;28;20308;-76
2022/01/22 07:38:43;;;;;;;12.48;5.35;;;;;;;;;;10471756;28;20205;-77
2022/01/22 07:43:48;;;;;;;9.07;5.70;;;;;;;;;;10446872;28;20234;-78
2022/01/22 07:49:05;;;;;;;12.60;6.45;;;;;;;;;;10462544;28;20925;-78
2022/01/22 07:54:21;;;;;;;11.07;6.30;;;;;;;;;;10452248;28;20201;-78
2022/01/22 07:59:23;;;;;;;15.85;7.25;;;;;;;;;;10469165;28;20197;-76
2022/01/22 08:04:26;;;;;;;16.27;7.65;;;;;;;;;;10462723;28;20221;-76
2022/01/22 08:09:30;;;;;;;18.33;7.75;;;;;;;;;;10469024;28;20205;-77
2022/01/22 08:14:44;;;;;;;18.00;9.40;;;;;;;;;;10462465;28;20194;-77
2022/01/22 08:19:46;;;;;;;22.80;10.75;;;;;;;;;;10456108;28;20232;-79
2022/01/22 08:25:06;;;;;;;22.23;10.20;;;;;;;;;;10484157;28;20228;-77
2022/01/22 08:30:09;;;;;;;28.33;11.65;;;;;;;;;;10458086;28;20185;-79
2022/01/22 08:40:31;;;;;;;26.75;13.20;;;;;;;;;;10467767;28;20214;-76
2022/01/22 08:45:32;;;;;;;28.58;12.55;;;;;;;;;;10433616;28;20198;-78
2022/01/22 08:50:36;;;;;;;28.45;12.32;;;;;;;;;;10416076;28;20283;-77
2022/01/22 08:55:37;;;;;;;27.88;11.95;;;;;;;;;;10417744;28;20197;-79
2022/01/22 09:00:39;;;;;;;25.88;11.43;;;;;;;;;;10407930;28;20891;-78
2022/01/22 09:05:48;;;;;;;23.85;11.25;;;;;;;;;;10410134;28;20296;-78
2022/01/22 09:11:07;;;;;;;24.88;11.80;;;;;;;;;;10426534;28;20195;-79
2022/01/22 09:16:38;;;;;;;37.28;15.70;;;;;;;;;;10425927;28;20841;-79
2022/01/22 09:21:44;;;;;;;28.58;13.93;;;;;;;;;;10423044;28;20237;-79
2022/01/22 09:26:45;;;;;;;19.85;10.15;;;;;;;;;;10410760;28;20206;-77
2022/01/22 09:31:47;;;;;;;23.65;10.65;;;;;;;;;;10418732;28;20234;-77
2022/01/22 09:37:00;;;;;;;19.25;9.15;;;;;;;;;;10423113;28;20900;-78
2022/01/22 09:42:24;;;;;;;20.40;9.95;;;;;;;;;;10420415;28;20213;-79
2022/01/22 09:47:33;;;;;;;21.50;9.43;;;;;;;;;;10416561;28;20236;-79
2022/01/22 09:53:00;;;;;;;20.77;9.85;;;;;;;;;;10434491;28;20202;-78
2022/01/22 09:58:20;;;;;;;20.50;9.57;;;;;;;;;;10449031;28;20198;-78
2022/01/22 10:03:39;;;;;;;20.88;8.82;;;;;;;;;;10435395;28;20209;-80
2022/01/22 10:09:06;;;;;;;16.98;9.55;;;;;;;;;;10429836;28;20198;-79
2022/01/22 10:14:27;;;;;;;19.73;9.75;;;;;;;;;;10442511;28;20194;-80
2022/01/22 10:19:28;;;;;;;20.15;8.95;;;;;;;;;;10419472;28;20333;-81
2022/01/22 10:24:40;;;;;;;20.35;10.50;;;;;;;;;;10428944;28;21747;-79
2022/01/22 10:29:47;;;;;;;18.15;9.82;;;;;;;;;;10457355;28;20194;-81
2022/01/22 10:34:48;;;;;;;19.67;8.95;;;;;;;;;;10455350;28;20253;-81
2022/01/22 10:40:27;;;;;;;18.17;9.38;;;;;;;;;;10440580;28;20211;-80
2022/01/22 10:45:31;;;;;;;20.42;9.43;;;;;;;;;;10442179;28;20205;-80
2022/01/22 10:50:34;;;;;;;18.52;8.90;;;;;;;;;;10451635;28;20190;-80
2022/01/22 10:55:55;;;;;;;15.05;7.75;;;;;;;;;;10424990;28;20205;-80
2022/01/22 11:00:59;;;;;;;20.13;8.68;;;;;;;;;;10429904;28;21056;-80
2022/01/22 11:06:05;;;;;;;19.38;9.38;;;;;;;;;;10411204;28;20202;-80
2022/01/22 11:11:07;;;;;;;11.88;7.95;;;;;;;;;;10441121;28;20241;-76
2022/01/22 11:16:10;;;;;;;15.48;8.52;;;;;;;;;;10433544;28;20202;-78
2022/01/22 11:21:12;;;;;;;13.45;8.10;;;;;;;;;;10425287;28;20223;-79
2022/01/22 11:26:14;;;;;;;15.35;8.70;;;;;;;;;;10431333;28;20207;-78
2022/01/22 11:31:16;;;;;;;14.90;8.63;;;;;;;;;;10427608;28;20225;-79
2022/01/22 11:36:20;;;;;;;13.05;8.05;;;;;;;;;;10428425;28;20250;-78
2022/01/22 11:41:22;;;;;;;14.60;8.23;;;;;;;;;;10433286;28;20702;-78
2022/01/22 11:46:36;;;;;;;19.55;8.57;;;;;;;;;;10407731;28;20256;-78
2022/01/22 11:51:37;;;;;;;16.00;9.45;;;;;;;;;;10439640;28;20182;-78
2022/01/22 11:56:43;;;;;;;18.77;9.32;;;;;;;;;;10442744;28;20194;-80
2022/01/22 12:01:51;;;;;;;16.00;8.75;;;;;;;;;;10422983;28;20293;-77
2022/01/22 12:07:01;;;;;;;17.52;9.30;;;;;;;;;;10409901;28;20233;-78
2022/01/22 12:17:49;;;;;;;19.58;9.77;;;;;;;;;;10426799;28;20208;-77
2022/01/22 12:22:50;;;;;;;23.02;8.45;;;;;;;;;;10450181;28;20918;-78
2022/01/22 12:27:52;;;;;;;21.70;8.93;;;;;;;;;;10419967;28;20202;-80
2022/01/22 12:32:53;;;;;;;25.02;8.50;;;;;;;;;;10406578;28;20279;-78
2022/01/22 12:38:13;;;;;;;17.33;8.65;;;;;;;;;;10420613;28;20197;-81
2022/01/22 12:43:25;;;;;;;19.80;9.80;;;;;;;;;;10428788;28;20222;-79
2022/01/22 12:48:28;;;;;;;21.23;8.80;;;;;;;;;;10408844;28;20220;-79
2022/01/22 12:53:30;;;;;;;13.63;6.20;;;;;;;;;;10428247;28;20191;-80
2022/01/22 12:58:37;;;;;;;9.50;5.13;;;;;;;;;;10421722;28;20194;-80
2022/01/22 13:03:40;;;;;;;5.90;4.82;;;;;;;;;;10432192;28;20226;-78
2022/01/22 13:08:41;;;;;;;8.98;4.72;;;;;;;;;;10403587;28;20209;-78
2022/01/22 13:13:52;;;;;;;9.65;5.00;;;;;;;;;;10400575;28;20190;-78
2022/01/22 13:18:58;;;;;;;7.07;4.03;;;;;;;;;;10444543;28;20191;-78
2022/01/22 13:23:59;;;;;;;8.52;4.07;;;;;;;;;;10433761;28;20972;-78
2022/01/22 13:29:13;;;;;;;10.25;4.68;;;;;;;;;;10435586;28;20313;-79
2022/01/22 13:34:27;;;;;;;11.70;5.22;;;;;;;;;;10450256;28;20213;-79
2022/01/22 13:40:01;;;;;;;6.22;3.92;;;;;;;;;;10408626;28;20212;-79
2022/01/22 13:45:25;;;;;;;8.80;3.72;;;;;;;;;;10445011;28;20223;-79
2022/01/22 13:50:26;;;;;;;2.50;2.33;;;;;;;;;;10429921;28;20308;-79
2022/01/22 13:55:27;;;;;;;2.63;2.22;;;;;;;;;;10446265;28;20204;-77
2022/01/22 14:00:28;;;;;;;2.40;2.20;;;;;;;;;;10422452;28;20194;-79
2022/01/22 14:05:31;;;;;;;5.80;2.55;;;;;;;;;;10416065;28;20210;-77
2022/01/22 14:10:33;;;;;;;2.45;2.30;;;;;;;;;;10408297;28;20190;-76
2022/01/22 14:15:36;;;;;;;5.63;2.05;;;;;;;;;;10444903;28;20195;-78
2022/01/22 14:20:39;;;;;;;2.67;1.77;;;;;;;;;;10416816;28;20209;-80
2022/01/22 14:26:12;;;;;;;2.63;1.90;;;;;;;;;;10451422;28;20206;-80
2022/01/22 14:31:19;;;;;;;3.17;2.20;;;;;;;;;;10387723;28;20218;-79
2022/01/22 14:36:22;;;;;;;2.85;2.08;;;;;;;;;;10428721;28;20202;-79
2022/01/22 14:46:52;;;;;;;3.25;2.95;;;;;;;;;;10452721;28;20850;-81
2022/01/22 14:51:53;;;;;;;4.22;2.92;;;;;;;;;;10443355;28;20206;-80
2022/01/22 14:56:54;;;;;;;2.47;2.28;;;;;;;;;;10427706;28;20194;-81
2022/01/22 15:01:57;;;;;;;5.20;2.72;;;;;;;;;;10449846;28;20744;-79
2022/01/22 15:06:59;;;;;;;4.15;3.90;;;;;;;;;;10427237;28;20202;-80
2022/01/22 15:12:05;;;;;;;3.13;2.92;;;;;;;;;;10432480;28;20187;-78
2022/01/22 15:22:12;;;;;;;3.55;1.00;;;;;;;;;;10431857;28;20195;-78
2022/01/22 15:27:15;;;;;;;2.42;1.10;;;;;;;;;;10437213;28;20735;-79
2022/01/22 15:37:39;;;;;;;1.30;1.20;;;;;;;;;;10433517;28;20258;-81
2022/01/22 15:42:44;;;;;;;1.75;1.30;;;;;;;;;;10425558;28;20741;-79
2022/01/22 15:47:45;;;;;;;2.08;1.88;;;;;;;;;;10422003;28;20528;-79
2022/01/22 15:52:47;;;;;;;2.72;1.70;;;;;;;;;;10414598;28;20211;-79
2022/01/22 15:57:48;;;;;;;5.68;2.00;;;;;;;;;;10435702;28;20186;-81
2022/01/22 16:02:51;;;;;;;5.18;2.88;;;;;;;;;;10424332;28;20217;-79
2022/01/22 16:07:53;;;;;;;4.97;2.80;;;;;;;;;;10422378;28;20265;-78
2022/01/22 16:12:54;;;;;;;3.42;2.55;;;;;;;;;;10414314;28;20190;-79
2022/01/22 16:17:55;;;;;;;3.35;3.17;;;;;;;;;;10425746;28;20289;-77
2022/01/22 16:22:56;;;;;;;4.10;3.80;;;;;;;;;;10431383;28;20275;-78
2022/01/22 16:27:57;;;;;;;6.20;4.43;;;;;;;;;;10418018;28;20218;-79
2022/01/22 16:32:58;;;;;;;7.05;5.20;;;;;;;;;;10414247;28;20214;-77
2022/01/22 16:37:59;;;;;;;5.20;4.25;;;;;;;;;;10431337;28;20281;-78
2022/01/22 16:43:05;;;;;;;4.35;3.90;;;;;;;;;;10419403;28;20975;-77
2022/01/22 16:54:38;;;;;;;8.15;6.65;;;;;;;;;;10428574;28;20210;-77
2022/01/22 16:58:57;;;;;;;19.15;11.20;;;;;;;;;;10418231;28;20213;-78
2022/01/22 17:03:59;;;;;;;14.40;10.60;;;;;;;;;;10389630;28;20217;-78
2022/01/22 17:09:18;;;;;;;8.45;7.15;;;;;;;;;;10437285;28;20579;-78
2022/01/22 17:14:19;;;;;;;5.43;5.07;;;;;;;;;;10409700;28;20229;-78
2022/01/22 17:19:21;;;;;;;5.38;5.00;;;;;;;;;;10424911;28;20202;-77
2022/01/22 17:24:22;;;;;;;15.63;12.38;;;;;;;;;;10401247;28;20207;-76
2022/01/22 17:29:23;;;;;;;8.90;7.60;;;;;;;;;;10429965;28;20190;-77
2022/01/22 17:34:24;;;;;;;4.90;4.57;;;;;;;;;;10410168;28;20211;-76
2022/01/22 17:39:27;;;;;;;3.22;3.13;;;;;;;;;;10412787;28;20209;-79
2022/01/22 17:44:33;;;;;;;2.63;2.63;;;;;;;;;;10428113;28;20230;-78
2022/01/22 17:49:35;;;;;;;2.03;1.92;;;;;;;;;;10433884;28;20789;-77
2022/01/22 17:54:37;;;;;;;1.70;1.70;;;;;;;;;;10452838;28;20199;-78
2022/01/22 17:59:38;;;;;;;1.55;1.55;;;;;;;;;;10455925;28;20189;-77
2022/01/22 18:04:41;;;;;;;0.80;0.80;;;;;;;;;;10474830;28;20217;-77
2022/01/22 18:09:42;;;;;;;0.95;0.65;;;;;;;;;;10458467;28;20674;-77
2022/01/22 18:14:44;;;;;;;26.00;18.33;;;;;;;;;;10441448;28;20200;-77
2022/01/22 18:19:45;;;;;;;1.00;1.00;;;;;;;;;;10468509;28;20186;-77
2022/01/22 18:24:46;;;;;;;1.70;1.10;;;;;;;;;;10482096;28;20219;-78
2022/01/22 18:29:47;;;;;;;1.02;1.02;;;;;;;;;;10474016;28;20279;-79
2022/01/22 18:34:48;;;;;;;2.30;2.20;;;;;;;;;;10480066;28;20210;-79
2022/01/22 18:39:56;;;;;;;2.55;2.45;;;;;;;;;;10465538;28;20198;-79
2022/01/22 18:44:58;;;;;;;1.70;1.58;;;;;;;;;;10485781;28;20230;-77
2022/01/22 18:49:59;;;;;;;4.00;3.67;;;;;;;;;;10457575;28;20219;-78
2022/01/22 18:55:00;;;;;;;2.63;2.53;;;;;;;;;;10451380;28;20236;-77
2022/01/22 19:00:02;;;;;;;2.50;2.40;;;;;;;;;;10463329;28;20189;-78
2022/01/22 19:05:03;;;;;;;2.75;1.63;;;;;;;;;;10483806;28;20214;-78
2022/01/22 19:10:05;;;;;;;2.22;2.13;;;;;;;;;;10460853;28;20204;-78
2022/01/22 19:15:11;;;;;;;2.10;2.00;;;;;;;;;;10455630;28;20205;-78
2022/01/22 19:20:13;;;;;;;0.93;0.93;;;;;;;;;;10484655;28;20205;-78
2022/01/22 19:25:31;;;;;;;1.58;1.58;;;;;;;;;;10467743;28;20239;-79
2022/01/22 19:30:33;;;;;;;1.20;1.20;;;;;;;;;;10461929;28;20204;-78
2022/01/22 19:35:34;;;;;;;0.88;0.80;;;;;;;;;;10480952;28;20256;-77
2022/01/22 19:40:36;;;;;;;2.90;2.70;;;;;;;;;;10446549;28;20226;-77
2022/01/22 19:45:38;;;;;;;1.83;1.83;;;;;;;;;;10450133;28;20260;-78
2022/01/22 19:50:41;;;;;;;2.17;2.00;;;;;;;;;;10449685;28;20194;-78
2022/01/22 19:55:43;;;;;;;2.38;2.28;;;;;;;;;;10454459;28;20200;-78
2022/01/22 20:00:44;;;;;;;2.03;2.03;;;;;;;;;;10462316;28;20217;-79
2022/01/22 20:05:45;;;;;;;2.03;1.92;;;;;;;;;;10470042;28;20352;-78
2022/01/22 20:10:52;;;;;;;1.50;1.40;;;;;;;;;;10458589;28;20186;-79
2022/01/22 20:15:53;;;;;;;2.15;1.40;;;;;;;;;;10456704;28;20201;-78
2022/01/22 20:20:54;;;;;;;1.42;1.42;;;;;;;;;;10474067;28;20964;-78
2022/01/22 20:25:55;;;;;;;1.10;1.10;;;;;;;;;;10472846;28;20332;-77
2022/01/22 20:30:56;;;;;;;0.52;0.52;;;;;;;;;;10455636;28;20205;-78
2022/01/22 20:35:57;;;;;;;2.75;0.80;;;;;;;;;;10452521;28;20194;-78
2022/01/22 20:40:59;;;;;;;0.90;0.90;;;;;;;;;;10452650;28;20229;-77
2022/01/22 20:46:00;;;;;;;0.85;0.80;;;;;;;;;;10464303;28;20864;-77
2022/01/22 20:51:01;;;;;;;0.68;0.68;;;;;;;;;;10478455;28;20197;-77
2022/01/22 20:56:03;;;;;;;0.50;0.50;;;;;;;;;;10468301;28;20701;-78
2022/01/22 21:01:06;;;;;;;0.47;0.47;;;;;;;;;;10465819;28;20291;-79
2022/01/22 21:06:08;;;;;;;0.40;0.40;;;;;;;;;;10456669;28;20287;-78
2022/01/22 21:11:13;;;;;;;0.70;0.60;;;;;;;;;;10456269;28;20190;-77
2022/01/22 21:16:16;;;;;;;1.13;0.65;;;;;;;;;;10469041;28;20205;-77
2022/01/22 21:21:21;;;;;;;0.80;0.80;;;;;;;;;;10471831;28;20200;-77
2022/01/22 21:26:23;;;;;;;1.08;1.08;;;;;;;;;;10455212;28;20225;-77
2022/01/22 21:31:24;;;;;;;0.75;0.75;;;;;;;;;;10461309;28;20286;-76
2022/01/22 21:36:32;;;;;;;1.63;0.80;;;;;;;;;;10461421;28;21092;-77
2022/01/22 21:41:33;;;;;;;1.27;1.27;;;;;;;;;;10459049;28;20229;-77
2022/01/22 21:46:35;;;;;;;1.50;1.40;;;;;;;;;;10457306;28;20205;-76
2022/01/22 21:51:36;;;;;;;2.13;2.03;;;;;;;;;;10482529;28;20186;-77
2022/01/22 21:56:37;;;;;;;3.03;1.63;;;;;;;;;;10469833;28;20197;-77
2022/01/22 22:01:38;;;;;;;1.83;1.70;;;;;;;;;;10461645;28;20411;-78
2022/01/22 22:06:39;;;;;;;1.98;1.95;;;;;;;;;;10447864;28;20242;-78
2022/01/22 22:11:40;;;;;;;3.17;3.08;;;;;;;;;;10485561;28;20189;-79
2022/01/22 22:16:43;;;;;;;5.22;4.82;;;;;;;;;;10476624;28;20185;-79
2022/01/22 22:21:44;;;;;;;4.85;4.55;;;;;;;;;;10483668;28;20185;-79
2022/01/22 22:26:45;;;;;;;10.65;5.50;;;;;;;;;;10486222;28;20237;-79
2022/01/22 22:31:49;;;;;;;5.15;4.85;;;;;;;;;;10469141;28;20205;-78
2022/01/22 22:36:50;;;;;;;7.90;5.88;;;;;;;;;;10490291;28;20247;-79
2022/01/22 22:41:51;;;;;;;8.32;6.03;;;;;;;;;;10460400;28;20227;-79
2022/01/22 22:46:52;;;;;;;7.80;5.50;;;;;;;;;;10476375;28;20209;-79
2022/01/22 22:51:53;;;;;;;6.45;5.72;;;;;;;;;;10472786;28;20194;-79
2022/01/22 22:56:54;;;;;;;6.80;6.20;;;;;;;;;;10483434;28;20197;-77
2022/01/22 23:01:55;;;;;;;8.65;6.70;;;;;;;;;;10497328;28;20773;-80
2022/01/22 23:06:56;;;;;;;8.85;6.82;;;;;;;;;;10483935;28;20214;-80
2022/01/22 23:11:59;;;;;;;7.50;6.78;;;;;;;;;;10477526;28;20289;-80
2022/01/22 23:17:30;;;;;;;7.07;6.40;;;;;;;;;;10472692;28;20189;-78
2022/01/22 23:22:36;;;;;;;6.40;5.80;;;;;;;;;;10493421;28;20454;-79
2022/01/22 23:27:37;;;;;;;7.38;6.75;;;;;;;;;;10490670;28;20209;-79
2022/01/22 23:33:06;;;;;;;6.32;5.82;;;;;;;;;;10490805;28;20241;-79
2022/01/22 23:54:17;;;;;;;6.03;5.43;;;;;;;;;;10494947;28;20291;-79
2022/01/22 23:59:31;;;;;;;6.13;5.72;;;;;;;;;;10486376;28;20206;-77
